createdAt,value
2019-01-19T00:00:35.807Z,2.20
2019-01-19T00:03:28.603Z,2.21
2019-01-19T00:06:18.108Z,2.22
2019-01-19T00:08:47.450Z,2.13
2019-01-19T00:11:50.393Z,2.11
2019-01-19T00:14:21.685Z,2.11
2019-01-19T00:17:05.143Z,2.13
2019-01-19T00:19:59.426Z,2.18
2019-01-19T00:22:36.682Z,2.15
2019-01-19T00:25:24.408Z,2.20
2019-01-19T00:28:04.596Z,2.12
2019-01-19T00:30:38.899Z,2.16
2019-01-19T00:33:25.416Z,2.13
2019-01-19T00:35:57.157Z,2.11
2019-01-19T00:38:44.995Z,2.12
2019-01-19T00:41:22.149Z,2.12
2019-01-19T00:43:53.877Z,2.13
2019-01-19T00:46:31.266Z,2.14
2019-01-19T00:49:05.484Z,2.14
2019-01-19T00:51:37.136Z,2.15
2019-01-19T00:54:17.732Z,2.11
2019-01-19T00:57:14.560Z,2.13
2019-01-19T00:59:43.564Z,2.10
2019-01-19T01:02:15.269Z,2.12
2019-01-19T01:04:49.591Z,2.15
2019-01-19T01:07:27.209Z,2.16
2019-01-19T01:10:04.740Z,2.13
2019-01-19T01:12:39.281Z,2.08
2019-01-19T01:15:36.820Z,2.09
2019-01-19T01:18:08.862Z,2.10
2019-01-19T01:20:46.393Z,2.13
2019-01-19T01:23:24.040Z,2.11
2019-01-19T01:26:25.630Z,2.12
2019-01-19T01:29:06.134Z,2.03
2019-01-19T01:31:43.619Z,2.08
2019-01-19T01:34:36.354Z,2.11
2019-01-19T01:37:08.037Z,2.13
2019-01-19T01:39:45.766Z,2.15
2019-01-19T01:42:18.752Z,2.15
2019-01-19T01:45:02.336Z,2.13
2019-01-19T01:48:08.265Z,2.15
2019-01-19T01:50:57.811Z,2.15
2019-01-19T01:53:41.042Z,2.15
2019-01-19T01:56:10.777Z,2.14
2019-01-19T01:58:45.104Z,2.21
2019-01-19T02:01:31.424Z,2.23
2019-01-19T02:04:28.573Z,2.25
2019-01-19T02:07:00.243Z,2.22
2019-01-19T02:09:43.279Z,2.24
2019-01-19T02:12:23.687Z,2.23
2019-01-19T02:15:00.880Z,2.23
2019-01-19T02:17:32.841Z,2.23
2019-01-19T02:20:10.345Z,2.21
2019-01-19T02:22:58.211Z,2.16
2019-01-19T02:25:35.982Z,2.15
2019-01-19T02:28:32.720Z,2.15
2019-01-19T02:31:22.054Z,2.17
2019-01-19T02:34:14.501Z,2.18
2019-01-19T02:37:02.001Z,2.12
2019-01-19T02:39:48.295Z,2.15
2019-01-19T02:42:25.885Z,2.18
2019-01-19T02:45:03.435Z,2.18
2019-01-19T02:47:53.441Z,2.17
2019-01-19T02:50:36.925Z,2.18
2019-01-19T02:53:25.239Z,2.16
2019-01-19T02:56:02.669Z,2.15
2019-01-19T02:58:37.113Z,2.11
2019-01-19T03:01:28.233Z,2.12
2019-01-19T03:04:14.870Z,2.09
2019-01-19T03:07:08.508Z,2.11
2019-01-19T03:09:42.866Z,2.12
2019-01-19T03:12:23.520Z,2.12
2019-01-19T03:15:06.746Z,2.12
2019-01-19T03:17:55.947Z,2.12
2019-01-19T03:20:36.518Z,2.10
2019-01-19T03:23:08.201Z,2.10
2019-01-19T03:25:45.256Z,2.11
2019-01-19T03:28:31.065Z,2.12
2019-01-19T03:31:14.311Z,2.10
2019-01-19T03:33:45.912Z,2.11
2019-01-19T03:36:33.534Z,2.09
2019-01-19T03:39:11.109Z,2.08
2019-01-19T03:41:43.169Z,2.09
2019-01-19T03:44:38.554Z,2.11
2019-01-19T03:47:19.585Z,2.14
2019-01-19T03:50:09.090Z,2.14
2019-01-19T03:52:45.975Z,2.13
2019-01-19T03:55:20.133Z,2.14
2019-01-19T03:57:51.772Z,2.14
2019-01-19T04:00:47.186Z,2.16
2019-01-19T04:03:36.492Z,1.99
2019-01-19T04:06:24.666Z,1.92
2019-01-19T04:09:18.532Z,1.96
2019-01-19T04:12:13.919Z,2.00
2019-01-19T04:14:54.318Z,2.06
2019-01-19T04:17:42.278Z,2.04
2019-01-19T04:20:33.371Z,1.84
2019-01-19T04:23:02.827Z,1.84
2019-01-19T04:25:34.486Z,1.91
2019-01-19T04:28:04.416Z,1.92
2019-01-19T04:30:32.897Z,1.96
2019-01-19T04:33:01.430Z,2.02
2019-01-19T04:35:30.067Z,2.03
2019-01-19T04:37:58.600Z,2.08
2019-01-19T04:40:27.133Z,2.08
2019-01-19T04:42:55.867Z,2.04
2019-01-19T04:45:24.346Z,2.04
2019-01-19T04:47:52.977Z,2.06
2019-01-19T04:50:21.536Z,2.05
2019-01-19T04:52:50.032Z,2.07
2019-01-19T04:55:18.574Z,2.04
2019-01-19T04:57:47.388Z,2.08
2019-01-19T05:00:17.994Z,2.10
2019-01-19T05:02:46.540Z,2.13
2019-01-19T05:05:15.179Z,2.15
2019-01-19T05:07:43.787Z,2.14
2019-01-19T05:10:13.002Z,2.14
2019-01-19T05:12:41.664Z,2.10
2019-01-19T05:15:13.247Z,2.03
2019-01-19T05:17:41.905Z,2.01
2019-01-19T05:20:12.553Z,1.98
2019-01-19T05:22:41.208Z,1.94
2019-01-19T05:25:11.657Z,1.93
2019-01-19T05:27:40.349Z,1.91
2019-01-19T05:30:12.518Z,1.89
2019-01-19T05:32:41.206Z,1.88
2019-01-19T05:35:09.991Z,1.86
2019-01-19T05:37:38.591Z,1.80
2019-01-19T05:40:10.045Z,1.75
2019-01-19T05:42:38.577Z,1.74
2019-01-19T05:45:09.583Z,1.72
2019-01-19T05:47:38.099Z,1.69
2019-01-19T05:50:15.239Z,1.60
2019-01-19T05:52:43.868Z,1.53
2019-01-19T05:55:12.622Z,1.43
2019-01-19T05:57:41.133Z,1.44
2019-01-19T06:00:13.026Z,1.48
2019-01-19T06:02:41.586Z,1.50
2019-01-19T06:05:10.451Z,1.51
2019-01-19T06:07:39.094Z,1.52
2019-01-19T06:10:10.784Z,1.50
2019-01-19T06:12:39.360Z,1.49
2019-01-19T06:15:10.776Z,1.49
2019-01-19T06:17:39.338Z,1.48
2019-01-19T06:20:13.865Z,1.49
2019-01-19T06:22:42.369Z,1.48
2019-01-19T06:25:13.267Z,1.47
2019-01-19T06:27:42.042Z,1.49
2019-01-19T06:30:16.568Z,1.48
2019-01-19T06:32:45.110Z,1.51
2019-01-19T06:35:13.904Z,1.54
2019-01-19T06:37:42.500Z,1.49
2019-01-19T06:40:16.039Z,1.36
2019-01-19T06:42:44.614Z,1.26
2019-01-19T06:45:15.462Z,1.17
2019-01-19T06:47:44.049Z,1.09
2019-01-19T06:50:15.077Z,0.90
2019-01-19T06:52:43.723Z,0.77
2019-01-19T06:55:14.795Z,0.76
2019-01-19T06:57:43.419Z,0.82
2019-01-19T07:00:16.926Z,0.76
2019-01-19T07:02:45.572Z,0.76
2019-01-19T07:05:14.426Z,0.69
2019-01-19T07:07:43.265Z,0.69
2019-01-19T07:10:17.607Z,0.72
2019-01-19T07:12:46.954Z,0.72
2019-01-19T07:15:15.795Z,0.72
2019-01-19T07:17:44.383Z,0.65
2019-01-19T07:20:15.661Z,0.68
2019-01-19T07:22:44.307Z,0.73
2019-01-19T07:25:12.964Z,0.74
2019-01-19T07:27:41.445Z,0.53
2019-01-19T07:30:16.018Z,0.52
2019-01-19T07:32:45.540Z,0.46
2019-01-19T07:35:14.724Z,0.40
2019-01-19T07:37:43.340Z,0.50
2019-01-19T07:40:16.746Z,0.52
2019-01-19T07:42:45.667Z,0.45
2019-01-19T07:45:15.365Z,0.42
2019-01-19T07:47:45.123Z,0.40
2019-01-19T07:50:16.193Z,0.47
2019-01-19T07:52:45.377Z,0.41
2019-01-19T07:55:16.366Z,0.29
2019-01-19T07:57:45.022Z,0.33
2019-01-19T08:00:16.573Z,0.38
2019-01-19T08:02:45.197Z,0.47
2019-01-19T08:05:13.772Z,0.40
2019-01-19T08:07:42.240Z,0.23
2019-01-19T08:10:13.702Z,0.25
2019-01-19T08:12:42.160Z,0.21
2019-01-19T08:15:17.717Z,0.35
2019-01-19T08:17:46.458Z,0.43
2019-01-19T08:20:15.611Z,0.45
2019-01-19T08:22:44.353Z,0.54
2019-01-19T08:25:13.589Z,0.65
2019-01-19T08:27:42.254Z,0.66
2019-01-19T08:30:13.905Z,0.73
2019-01-19T08:32:42.783Z,0.78
2019-01-19T08:35:12.488Z,0.82
2019-01-19T08:37:41.144Z,0.66
2019-01-19T08:40:24.338Z,0.65
2019-01-19T08:42:54.551Z,0.55
2019-01-19T08:45:23.275Z,0.72
2019-01-19T08:47:52.030Z,0.79
2019-01-19T08:50:20.677Z,0.74
2019-01-19T08:52:49.305Z,0.81
2019-01-19T08:55:17.935Z,0.96
2019-01-19T08:57:47.038Z,0.97
2019-01-19T09:00:17.575Z,0.87
2019-01-19T09:02:46.225Z,0.76
2019-01-19T09:05:14.931Z,0.80
2019-01-19T09:07:43.587Z,0.97
2019-01-19T09:10:14.711Z,1.08
2019-01-19T09:12:43.395Z,1.04
2019-01-19T09:15:14.327Z,1.13
2019-01-19T09:17:42.968Z,1.05
2019-01-19T09:20:14.791Z,1.06
2019-01-19T09:22:43.514Z,1.03
2019-01-19T09:25:14.288Z,1.12
2019-01-19T09:27:43.118Z,1.09
2019-01-19T09:30:23.399Z,1.20
2019-01-19T09:32:52.087Z,1.23
2019-01-19T09:35:20.704Z,1.29
2019-01-19T09:37:49.254Z,1.27
2019-01-19T09:40:18.556Z,1.30
2019-01-19T09:42:47.126Z,1.40
2019-01-19T09:45:17.363Z,1.52
2019-01-19T09:47:45.877Z,1.42
2019-01-19T09:50:23.681Z,1.51
2019-01-19T09:52:52.138Z,1.53
2019-01-19T09:55:20.737Z,1.59
2019-01-19T09:57:49.384Z,1.45
2019-01-19T10:00:21.220Z,1.56
2019-01-19T10:02:49.820Z,1.57
2019-01-19T10:05:23.098Z,1.72
2019-01-19T10:07:51.747Z,1.76
2019-01-19T10:10:20.265Z,1.83
2019-01-19T10:12:48.904Z,1.91
2019-01-19T10:15:18.784Z,1.95
2019-01-19T10:17:47.444Z,1.99
2019-01-19T10:20:21.247Z,1.92
2019-01-19T10:22:49.795Z,1.91
2019-01-19T10:25:18.294Z,2.01
2019-01-19T10:27:46.991Z,2.07
2019-01-19T10:30:18.463Z,2.02
2019-01-19T10:32:47.287Z,2.01
2019-01-19T10:35:16.635Z,1.93
2019-01-19T10:37:45.302Z,1.90
2019-01-19T10:40:16.413Z,1.92
2019-01-19T10:42:45.023Z,1.95
2019-01-19T10:45:26.175Z,2.09
2019-01-19T10:47:54.827Z,2.17
2019-01-19T10:50:23.506Z,2.14
2019-01-19T10:52:52.253Z,2.15
2019-01-19T10:55:22.321Z,2.21
2019-01-19T10:57:50.966Z,2.32
2019-01-19T11:00:33.630Z,2.31
2019-01-19T11:03:02.170Z,2.44
2019-01-19T11:05:31.094Z,2.54
2019-01-19T11:08:03.973Z,2.60
2019-01-19T11:10:36.426Z,2.56
2019-01-19T11:13:05.188Z,2.57
2019-01-19T11:15:33.886Z,2.61
2019-01-19T11:18:02.496Z,2.65
2019-01-19T11:20:32.166Z,2.59
2019-01-19T11:23:01.708Z,2.73
2019-01-19T11:25:30.582Z,2.67
2019-01-19T11:27:59.150Z,2.81
2019-01-19T11:30:29.901Z,2.92
2019-01-19T11:32:58.480Z,2.87
2019-01-19T11:35:30.081Z,2.96
2019-01-19T11:37:58.651Z,3.04
2019-01-19T11:40:29.931Z,3.02
2019-01-19T11:42:58.420Z,3.03
2019-01-19T11:45:27.075Z,3.08
2019-01-19T11:47:55.986Z,3.05
2019-01-19T11:50:24.557Z,3.13
2019-01-19T11:52:53.298Z,3.15
2019-01-19T11:55:21.930Z,3.10
2019-01-19T11:57:52.768Z,3.10
2019-01-19T12:00:26.907Z,3.19
2019-01-19T12:02:55.661Z,3.20
2019-01-19T12:05:24.317Z,3.27
2019-01-19T12:07:52.926Z,3.34
2019-01-19T12:10:29.490Z,3.36
2019-01-19T12:12:58.367Z,3.32
2019-01-19T12:15:27.070Z,3.26
2019-01-19T12:17:55.899Z,3.11
2019-01-19T12:20:26.871Z,3.10
2019-01-19T12:22:55.742Z,3.16
2019-01-19T12:25:25.410Z,3.17
2019-01-19T12:27:54.060Z,3.27
2019-01-19T12:30:25.188Z,3.34
2019-01-19T12:32:53.825Z,3.49
2019-01-19T12:35:22.560Z,3.55
2019-01-19T12:37:51.156Z,3.68
2019-01-19T12:40:25.040Z,3.75
2019-01-19T12:42:59.286Z,3.79
2019-01-19T12:45:31.011Z,3.84
2019-01-19T12:47:59.624Z,3.90
2019-01-19T12:50:28.582Z,3.92
2019-01-19T12:52:57.095Z,3.90
2019-01-19T12:55:25.847Z,3.96
2019-01-19T12:57:54.563Z,3.95
2019-01-19T13:00:25.412Z,3.92
2019-01-19T13:02:54.766Z,3.94
2019-01-19T13:05:44.347Z,3.93
2019-01-19T13:08:16.491Z,4.00
2019-01-19T13:10:51.229Z,4.01
2019-01-19T13:13:19.979Z,4.02
2019-01-19T13:15:51.806Z,4.03
2019-01-19T13:18:32.569Z,4.04
2019-01-19T13:21:38.360Z,4.08
2019-01-19T13:24:31.269Z,3.99
2019-01-19T13:27:20.514Z,3.97
2019-01-19T13:30:09.968Z,3.92
2019-01-19T13:32:50.518Z,3.79
2019-01-19T13:35:41.228Z,3.75
2019-01-19T13:38:28.958Z,3.77
2019-01-19T13:41:15.384Z,3.80
2019-01-19T13:44:09.552Z,3.85
2019-01-19T13:46:47.265Z,3.86
2019-01-19T13:49:41.803Z,3.90
2019-01-19T13:52:32.998Z,3.85
2019-01-19T13:55:31.664Z,3.72
2019-01-19T13:58:03.304Z,3.74
2019-01-19T14:00:55.988Z,3.82
2019-01-19T14:03:43.870Z,3.78
2019-01-19T14:06:36.129Z,3.62
2019-01-19T14:09:22.816Z,3.63
2019-01-19T14:12:03.033Z,3.50
2019-01-19T14:14:37.377Z,3.47
2019-01-19T14:17:29.807Z,3.60
2019-01-19T14:20:01.539Z,3.69
2019-01-19T14:22:52.267Z,3.55
2019-01-19T14:25:47.544Z,3.47
2019-01-19T14:28:37.188Z,3.20
2019-01-19T14:31:11.666Z,3.20
2019-01-19T14:33:54.870Z,3.18
2019-01-19T14:36:38.344Z,3.06
2019-01-19T14:39:12.730Z,2.89
2019-01-19T14:41:47.096Z,2.75
2019-01-19T14:44:19.001Z,2.74
2019-01-19T14:47:02.921Z,2.76
2019-01-19T14:49:40.639Z,2.81
2019-01-19T14:52:36.008Z,2.93
2019-01-19T14:55:23.805Z,2.89
2019-01-19T14:57:58.453Z,2.83
2019-01-19T15:00:35.934Z,2.81
2019-01-19T15:03:16.310Z,2.82
2019-01-19T15:05:51.897Z,2.79
2019-01-19T15:08:49.031Z,2.70
2019-01-19T15:11:39.936Z,2.66
2019-01-19T15:14:31.279Z,2.67
2019-01-19T15:17:18.686Z,2.57
2019-01-19T15:20:01.643Z,2.55
2019-01-19T15:22:45.626Z,2.48
2019-01-19T15:25:35.212Z,2.50
2019-01-19T15:28:06.894Z,2.44
2019-01-19T15:30:41.518Z,2.34
2019-01-19T15:33:30.947Z,2.29
2019-01-19T15:36:05.602Z,2.26
2019-01-19T15:38:43.177Z,2.18
2019-01-19T15:41:17.696Z,2.18
2019-01-19T15:44:13.459Z,2.18
2019-01-19T15:46:50.814Z,2.20
2019-01-19T15:49:47.731Z,2.20
2019-01-19T15:52:40.650Z,2.20
2019-01-19T15:55:36.028Z,2.19
2019-01-19T15:58:19.444Z,2.19
2019-01-19T16:01:00.230Z,2.13
2019-01-19T16:03:34.835Z,2.10
2019-01-19T16:06:27.662Z,2.12
2019-01-19T16:09:18.204Z,2.11
2019-01-19T16:12:05.710Z,2.10
2019-01-19T16:14:49.499Z,2.09
2019-01-19T16:17:27.053Z,2.10
2019-01-19T16:20:16.499Z,2.10
2019-01-19T16:22:54.163Z,2.09
2019-01-19T16:25:31.679Z,2.08
2019-01-19T16:28:15.238Z,2.05
2019-01-19T16:30:47.124Z,2.05
2019-01-19T16:33:33.385Z,2.04
2019-01-19T16:36:04.995Z,2.01
2019-01-19T16:39:00.051Z,2.00
2019-01-19T16:41:48.111Z,2.04
2019-01-19T16:44:27.848Z,2.05
2019-01-19T16:47:11.011Z,2.06
2019-01-19T16:49:48.147Z,2.07
2019-01-19T16:52:34.418Z,2.07
2019-01-19T16:55:14.858Z,2.11
2019-01-19T16:57:49.613Z,2.14
2019-01-19T17:00:37.560Z,2.16
2019-01-19T17:03:26.853Z,2.18
2019-01-19T17:06:01.275Z,2.20
2019-01-19T17:08:32.987Z,2.22
2019-01-19T17:11:10.552Z,2.21
2019-01-19T17:13:54.280Z,2.22
2019-01-19T17:16:40.588Z,2.21
2019-01-19T17:19:14.878Z,2.18
2019-01-19T17:21:58.481Z,2.18
2019-01-19T17:25:01.659Z,2.13
2019-01-19T17:27:36.019Z,2.10
2019-01-19T17:30:16.500Z,2.08
2019-01-19T17:32:51.254Z,2.06
2019-01-19T17:35:31.666Z,2.04
2019-01-19T17:38:12.162Z,2.05
2019-01-19T17:40:55.431Z,2.02
2019-01-19T17:43:27.779Z,2.00
2019-01-19T17:46:05.181Z,1.97
2019-01-19T17:48:39.846Z,1.95
2019-01-19T17:51:14.557Z,1.94
2019-01-19T17:53:46.426Z,1.93
2019-01-19T17:56:26.779Z,1.92
2019-01-19T17:59:07.414Z,1.91
2019-01-19T18:01:51.015Z,1.91
2019-01-19T18:04:28.369Z,1.90
2019-01-19T18:07:21.066Z,1.90
2019-01-19T18:10:13.637Z,1.87
2019-01-19T18:13:06.207Z,1.87
2019-01-19T18:15:40.799Z,1.81
2019-01-19T18:18:18.377Z,1.75
2019-01-19T18:20:52.478Z,1.73
2019-01-19T18:23:32.807Z,1.72
2019-01-19T18:26:04.405Z,1.65
2019-01-19T18:28:55.213Z,1.61
2019-01-19T18:31:26.946Z,1.61
2019-01-19T18:33:58.614Z,1.59
2019-01-19T18:36:35.816Z,1.60
2019-01-19T18:39:10.105Z,1.58
2019-01-19T18:41:44.635Z,1.56
2019-01-19T18:44:44.494Z,1.56
2019-01-19T18:47:33.823Z,1.56
2019-01-19T18:50:08.621Z,1.54
2019-01-19T18:53:01.401Z,1.52
2019-01-19T18:55:54.179Z,1.56
2019-01-19T18:58:35.657Z,1.53
2019-01-19T19:01:25.629Z,1.53
2019-01-19T19:04:00.046Z,1.49
2019-01-19T19:06:48.391Z,1.49
2019-01-19T19:09:35.238Z,1.46
2019-01-19T19:12:16.527Z,1.42
2019-01-19T19:14:56.910Z,1.39
2019-01-19T19:17:31.377Z,1.37
2019-01-19T19:20:08.403Z,1.33
2019-01-19T19:22:40.005Z,1.34
2019-01-19T19:25:35.688Z,1.34
2019-01-19T19:28:19.338Z,1.30
2019-01-19T19:30:57.119Z,1.27
2019-01-19T19:33:37.417Z,1.27
2019-01-19T19:36:37.616Z,1.25
2019-01-19T19:39:30.315Z,1.24
2019-01-19T19:42:22.777Z,1.21
2019-01-19T19:45:19.621Z,1.20
2019-01-19T19:47:56.838Z,1.19
2019-01-19T19:50:43.306Z,1.16
2019-01-19T19:53:11.945Z,1.14
2019-01-19T19:55:39.405Z,1.12
2019-01-19T19:58:07.927Z,1.12
2019-01-19T20:00:36.482Z,1.12
2019-01-19T20:03:05.268Z,1.08
2019-01-19T20:05:33.822Z,1.04
2019-01-19T20:08:02.358Z,1.04
2019-01-19T20:10:30.868Z,0.98
2019-01-19T20:12:59.370Z,0.99
2019-01-19T20:15:27.989Z,0.97
2019-01-19T20:17:57.495Z,0.96
2019-01-19T20:20:26.049Z,0.96
2019-01-19T20:22:54.716Z,0.95
2019-01-19T20:25:23.241Z,0.94
2019-01-19T20:27:51.752Z,0.92
2019-01-19T20:30:20.381Z,0.93
2019-01-19T20:32:50.487Z,0.94
2019-01-19T20:35:19.499Z,0.91
2019-01-19T20:37:48.427Z,0.88
2019-01-19T20:40:24.097Z,0.88
2019-01-19T20:42:47.436Z,0.86
2019-01-19T20:45:16.105Z,0.86
2019-01-19T20:47:44.727Z,0.83
2019-01-19T20:50:13.533Z,0.79
2019-01-19T20:52:42.526Z,0.78
2019-01-19T20:55:12.102Z,0.80
2019-01-19T20:57:40.789Z,0.80
2019-01-19T21:00:13.384Z,0.72
2019-01-19T21:02:42.091Z,0.69
2019-01-19T21:05:10.602Z,0.67
2019-01-19T21:07:39.287Z,0.69
2019-01-19T21:10:08.295Z,0.66
2019-01-19T21:12:37.048Z,0.63
2019-01-19T21:15:08.721Z,0.61
2019-01-19T21:17:38.075Z,0.57
2019-01-19T21:20:09.105Z,0.57
2019-01-19T21:22:37.808Z,0.55
2019-01-19T21:25:08.045Z,0.53
2019-01-19T21:27:36.864Z,0.52
2019-01-19T21:30:11.171Z,0.52
2019-01-19T21:32:39.877Z,0.51
2019-01-19T21:35:09.287Z,0.49
2019-01-19T21:37:37.980Z,0.48
2019-01-19T21:40:11.933Z,0.47
2019-01-19T21:42:40.482Z,0.48
2019-01-19T21:45:20.362Z,0.46
2019-01-19T21:47:48.943Z,0.46
2019-01-19T21:50:17.600Z,0.43
2019-01-19T21:52:46.079Z,0.46
2019-01-19T21:55:14.593Z,0.46
2019-01-19T21:57:43.067Z,0.45
2019-01-19T22:00:17.049Z,0.43
2019-01-19T22:02:45.583Z,0.41
2019-01-19T22:05:14.446Z,0.41
2019-01-19T22:07:42.927Z,0.42
2019-01-19T22:10:14.358Z,0.41
2019-01-19T22:12:42.824Z,0.44
2019-01-19T22:15:16.357Z,0.39
2019-01-19T22:17:44.970Z,0.39
2019-01-19T22:20:15.504Z,0.39
2019-01-19T22:22:44.297Z,0.37
2019-01-19T22:25:12.955Z,0.33
2019-01-19T22:27:43.271Z,0.30
2019-01-19T22:30:19.844Z,0.28
2019-01-19T22:32:50.221Z,0.27
2019-01-19T22:35:18.832Z,0.29
2019-01-19T22:37:47.327Z,0.26
2019-01-19T22:40:19.096Z,0.24
2019-01-19T22:42:48.147Z,0.23
2019-01-19T22:45:17.210Z,0.19
2019-01-19T22:47:45.751Z,0.18
2019-01-19T22:50:16.179Z,0.16
2019-01-19T22:52:44.787Z,0.19
2019-01-19T22:55:13.535Z,0.19
2019-01-19T22:57:42.064Z,0.15
2019-01-19T23:00:52.225Z,0.13
2019-01-19T23:03:20.800Z,0.13
2019-01-19T23:05:49.770Z,0.12
2019-01-19T23:08:18.355Z,0.11
2019-01-19T23:10:46.902Z,0.09
2019-01-19T23:13:15.518Z,0.11
2019-01-19T23:15:44.126Z,0.07
2019-01-19T23:18:12.733Z,0.06
2019-01-19T23:20:41.219Z,0.07
2019-01-19T23:23:09.641Z,0.01
2019-01-19T23:25:38.230Z,-0.01
2019-01-19T23:28:07.133Z,-0.08
2019-01-19T23:30:36.033Z,-0.05
2019-01-19T23:33:04.605Z,-0.04
2019-01-19T23:35:33.245Z,-0.05
2019-01-19T23:38:01.704Z,-0.05
2019-01-19T23:40:30.305Z,-0.02
2019-01-19T23:42:58.876Z,0.00
2019-01-19T23:45:27.508Z,-0.01
2019-01-19T23:47:55.982Z,-0.02
2019-01-19T23:50:24.616Z,-0.06
2019-01-19T23:52:53.487Z,-0.03
2019-01-19T23:55:22.340Z,-0.04
2019-01-19T23:57:50.957Z,-0.06
